Time;durP1;ratioP1;P1;durP2;ratioP2;P2;SDS_P1;SDS_P2;PMS_P1;PMS_P2;Temp;Humidity;BMP_temperature;BMP_pressure;BME280_temperature;BME280_humidity;BME280_pressure;Samples;Min_cycle;Max_cycle;Signal;HPM_P1;HPM_P2
2023/06/18 00:00:59;;;;;;;42.58;26.45;;;;;;;;;;5036584;28;20439;-81
2023/06/18 00:03:25;;;;;;;40.63;25.85;;;;;;;;;;5036122;28;20029;-81
2023/06/18 00:05:53;;;;;;;37.28;24.83;;;;;;;;;;5018002;28;20037;-82
2023/06/18 00:08:18;;;;;;;40.22;24.85;;;;;;;;;;5018178;28;20404;-82
2023/06/18 00:10:44;;;;;;;41.95;26.30;;;;;;;;;;5035485;28;20119;-82
2023/06/18 00:13:10;;;;;;;47.40;25.98;;;;;;;;;;5035329;28;20183;-81
2023/06/18 00:15:35;;;;;;;39.25;24.92;;;;;;;;;;5035265;28;20029;-81
2023/06/18 00:18:01;;;;;;;42.53;25.73;;;;;;;;;;5034189;28;20029;-81
2023/06/18 00:20:26;;;;;;;39.58;25.90;;;;;;;;;;5035340;28;20091;-80
2023/06/18 00:22:53;;;;;;;39.38;26.25;;;;;;;;;;5035192;28;20525;-81
2023/06/18 00:25:19;;;;;;;40.05;25.73;;;;;;;;;;5035346;28;20036;-81
2023/06/18 00:27:45;;;;;;;44.33;25.10;;;;;;;;;;5017588;28;20351;-81
2023/06/18 00:30:11;;;;;;;44.75;25.95;;;;;;;;;;5017440;28;20025;-81
2023/06/18 00:32:36;;;;;;;37.47;25.48;;;;;;;;;;5050628;28;20040;-80
2023/06/18 00:35:02;;;;;;;42.80;26.05;;;;;;;;;;5034992;28;20029;-81
2023/06/18 00:37:27;;;;;;;39.95;25.23;;;;;;;;;;5035152;28;20028;-81
2023/06/18 00:39:54;;;;;;;38.83;25.13;;;;;;;;;;5049995;28;20033;-80
2023/06/18 00:42:20;;;;;;;42.95;24.63;;;;;;;;;;5035409;28;20025;-81
2023/06/18 00:44:45;;;;;;;44.85;25.38;;;;;;;;;;5033673;28;20032;-81
2023/06/18 00:47:12;;;;;;;41.13;24.75;;;;;;;;;;5033623;28;20029;-81
2023/06/18 00:49:38;;;;;;;38.63;24.58;;;;;;;;;;5035114;28;20406;-81
2023/06/18 00:52:05;;;;;;;44.03;24.95;;;;;;;;;;5016922;28;20030;-81
2023/06/18 00:54:31;;;;;;;38.60;23.83;;;;;;;;;;5034645;28;20029;-81
2023/06/18 00:56:59;;;;;;;36.30;23.58;;;;;;;;;;5035013;28;20705;-81
2023/06/18 00:59:25;;;;;;;35.88;23.45;;;;;;;;;;5033417;28;20025;-81
2023/06/18 01:01:57;;;;;;;38.45;23.45;;;;;;;;;;4962461;28;1589510;-81
2023/06/18 01:04:26;;;;;;;38.72;24.02;;;;;;;;;;5034213;28;20053;-80
2023/06/18 01:06:55;;;;;;;37.83;24.47;;;;;;;;;;5017090;28;20037;-81
2023/06/18 01:09:21;;;;;;;35.90;23.00;;;;;;;;;;5050434;28;20033;-81
2023/06/18 01:11:53;;;;;;;34.90;22.08;;;;;;;;;;5034099;28;20029;-81
2023/06/18 01:14:21;;;;;;;36.00;22.00;;;;;;;;;;5017972;28;20404;-81
2023/06/18 01:16:47;;;;;;;34.10;22.60;;;;;;;;;;5018019;28;20038;-81
2023/06/18 01:19:21;;;;;;;33.20;21.60;;;;;;;;;;5035387;28;20467;-81
2023/06/18 01:21:50;;;;;;;33.83;22.20;;;;;;;;;;5035181;28;20492;-81
2023/06/18 01:24:19;;;;;;;36.00;21.88;;;;;;;;;;5017444;28;20075;-81
2023/06/18 01:26:45;;;;;;;33.07;22.07;;;;;;;;;;5017730;28;20407;-81
2023/06/18 01:29:12;;;;;;;30.70;21.35;;;;;;;;;;5034094;28;20156;-82
2023/06/18 01:31:38;;;;;;;35.85;21.15;;;;;;;;;;5017648;28;20454;-81
2023/06/18 01:34:07;;;;;;;37.35;20.80;;;;;;;;;;5035532;28;20066;-81
2023/06/18 01:36:34;;;;;;;35.72;21.15;;;;;;;;;;5017884;28;20118;-81
2023/06/18 01:39:06;;;;;;;33.08;21.50;;;;;;;;;;5033139;28;20430;-82
2023/06/18 01:41:32;;;;;;;31.00;21.50;;;;;;;;;;5017479;28;20455;-80
2023/06/18 01:44:01;;;;;;;35.50;22.08;;;;;;;;;;5000964;28;20095;-81
2023/06/18 01:46:28;;;;;;;35.13;20.92;;;;;;;;;;5033795;28;20421;-81
2023/06/18 01:48:56;;;;;;;32.75;20.38;;;;;;;;;;5017022;28;20053;-81
2023/06/18 01:51:21;;;;;;;31.60;21.25;;;;;;;;;;5033497;28;20029;-82
2023/06/18 01:53:47;;;;;;;32.03;20.20;;;;;;;;;;5017184;28;20335;-81
2023/06/18 01:56:13;;;;;;;32.65;20.40;;;;;;;;;;5033375;28;20463;-82
2023/06/18 01:58:42;;;;;;;33.05;20.30;;;;;;;;;;5017152;28;20045;-82
2023/06/18 02:01:09;;;;;;;29.98;19.08;;;;;;;;;;5034376;28;20554;-80
2023/06/18 02:03:35;;;;;;;32.13;19.73;;;;;;;;;;5034457;28;20026;-81
2023/06/18 02:06:00;;;;;;;32.25;19.50;;;;;;;;;;5016522;28;20374;-81
2023/06/18 02:08:26;;;;;;;30.42;20.00;;;;;;;;;;5016433;28;20410;-81
2023/06/18 02:10:51;;;;;;;27.58;19.42;;;;;;;;;;5034466;28;20348;-81
2023/06/18 02:13:17;;;;;;;27.15;19.55;;;;;;;;;;5033041;28;20037;-81
2023/06/18 02:15:42;;;;;;;28.25;19.63;;;;;;;;;;5016542;28;20033;-81
2023/06/18 02:18:09;;;;;;;27.85;18.92;;;;;;;;;;4999955;28;20520;-82
2023/06/18 02:20:35;;;;;;;30.40;19.55;;;;;;;;;;5034251;28;20036;-81
2023/06/18 02:23:00;;;;;;;28.77;19.20;;;;;;;;;;5016163;28;20025;-81
2023/06/18 02:25:32;;;;;;;29.00;20.13;;;;;;;;;;5016727;28;20034;-81
2023/06/18 02:28:04;;;;;;;32.05;19.48;;;;;;;;;;5032955;28;20037;-81
2023/06/18 02:30:30;;;;;;;28.42;18.70;;;;;;;;;;5033963;28;20029;-81
2023/06/18 02:32:58;;;;;;;34.92;19.83;;;;;;;;;;5016214;28;20139;-80
2023/06/18 02:35:27;;;;;;;36.22;18.85;;;;;;;;;;5033808;28;20465;-81
2023/06/18 02:37:53;;;;;;;31.20;19.30;;;;;;;;;;5032538;28;20026;-80
2023/06/18 02:40:18;;;;;;;33.40;19.70;;;;;;;;;;5034054;28;20040;-82
2023/06/18 02:42:47;;;;;;;31.25;19.17;;;;;;;;;;5033893;28;20026;-82
2023/06/18 02:45:23;;;;;;;27.25;19.38;;;;;;;;;;5033697;28;20025;-80
2023/06/18 02:47:49;;;;;;;31.08;19.85;;;;;;;;;;5032528;28;20047;-81
2023/06/18 02:50:15;;;;;;;32.03;19.38;;;;;;;;;;5032478;28;20507;-81
2023/06/18 02:52:41;;;;;;;31.65;19.38;;;;;;;;;;5032522;28;20332;-81
2023/06/18 02:55:07;;;;;;;33.33;20.70;;;;;;;;;;5016084;28;20036;-81
2023/06/18 02:57:33;;;;;;;31.80;20.42;;;;;;;;;;5032531;28;20425;-81
2023/06/18 02:59:59;;;;;;;31.30;20.25;;;;;;;;;;5033626;28;20030;-81
2023/06/18 03:02:25;;;;;;;29.55;19.67;;;;;;;;;;5033389;28;20094;-79
2023/06/18 03:04:50;;;;;;;31.92;20.02;;;;;;;;;;5033308;28;20440;-79
2023/06/18 03:07:16;;;;;;;30.80;20.75;;;;;;;;;;5033763;28;20042;-80
2023/06/18 03:09:41;;;;;;;30.77;19.33;;;;;;;;;;5032796;28;20026;-80
2023/06/18 03:12:07;;;;;;;35.55;19.33;;;;;;;;;;5033527;28;20348;-80
2023/06/18 03:14:33;;;;;;;35.17;19.33;;;;;;;;;;5034128;28;20061;-79
2023/06/18 03:16:58;;;;;;;30.02;19.55;;;;;;;;;;5016177;28;20033;-79
2023/06/18 03:19:24;;;;;;;28.60;19.42;;;;;;;;;;5033297;28;20112;-82
2023/06/18 03:21:50;;;;;;;33.40;19.65;;;;;;;;;;5033483;28;20432;-81
2023/06/18 03:24:15;;;;;;;30.55;19.65;;;;;;;;;;5015966;28;20075;-80
2023/06/18 03:26:41;;;;;;;30.90;19.48;;;;;;;;;;5033590;28;20061;-79
2023/06/18 03:29:07;;;;;;;29.02;18.90;;;;;;;;;;5035596;28;20113;-82
2023/06/18 03:31:33;;;;;;;28.27;18.80;;;;;;;;;;5037652;28;20043;-80
2023/06/18 03:34:01;;;;;;;33.75;18.65;;;;;;;;;;5045322;28;20116;-81
2023/06/18 03:36:30;;;;;;;27.40;18.45;;;;;;;;;;5059251;28;20025;-81
2023/06/18 03:38:56;;;;;;;26.80;18.58;;;;;;;;;;5037345;28;20040;-80
2023/06/18 03:41:22;;;;;;;27.63;18.70;;;;;;;;;;5049558;28;20025;-81
2023/06/18 03:43:47;;;;;;;30.40;18.70;;;;;;;;;;5052852;28;20093;-79
2023/06/18 03:46:12;;;;;;;27.70;19.30;;;;;;;;;;5019793;28;20041;-81
2023/06/18 03:48:39;;;;;;;26.98;18.48;;;;;;;;;;5019526;28;20347;-81
2023/06/18 03:51:05;;;;;;;28.23;18.05;;;;;;;;;;5019698;28;20418;-80
2023/06/18 03:53:31;;;;;;;29.45;18.67;;;;;;;;;;5035707;28;20065;-81
2023/06/18 03:55:56;;;;;;;29.55;18.33;;;;;;;;;;5019236;28;20132;-82
2023/06/18 03:58:22;;;;;;;31.67;18.63;;;;;;;;;;5036769;28;20106;-82
2023/06/18 04:00:47;;;;;;;27.17;18.10;;;;;;;;;;5036579;28;20124;-81
2023/06/18 04:03:13;;;;;;;27.98;18.25;;;;;;;;;;5036277;28;20508;-81
2023/06/18 04:05:38;;;;;;;26.17;17.48;;;;;;;;;;5035080;28;20132;-81
2023/06/18 04:08:04;;;;;;;28.40;18.38;;;;;;;;;;5036335;28;20068;-81
2023/06/18 04:10:29;;;;;;;28.88;18.08;;;;;;;;;;5036246;28;20033;-81
2023/06/18 04:12:55;;;;;;;23.92;16.63;;;;;;;;;;5036283;28;20048;-81
2023/06/18 04:15:21;;;;;;;30.40;17.45;;;;;;;;;;5035221;28;20391;-81
2023/06/18 04:17:46;;;;;;;26.02;17.60;;;;;;;;;;5036070;28;20033;-81
2023/06/18 04:20:12;;;;;;;25.33;16.90;;;;;;;;;;5036380;28;20029;-81
2023/06/18 04:22:37;;;;;;;23.77;16.45;;;;;;;;;;5036359;28;20030;-82
2023/06/18 04:25:02;;;;;;;23.77;16.42;;;;;;;;;;5036295;28;20033;-81
2023/06/18 04:27:28;;;;;;;31.02;17.55;;;;;;;;;;5034825;28;20060;-81
2023/06/18 04:29:53;;;;;;;27.48;16.33;;;;;;;;;;5018539;28;20029;-81
2023/06/18 04:32:19;;;;;;;32.38;16.90;;;;;;;;;;5035970;28;20084;-81
2023/06/18 04:34:44;;;;;;;27.70;16.45;;;;;;;;;;5035846;28;20022;-81
2023/06/18 04:37:10;;;;;;;23.95;16.48;;;;;;;;;;5018552;28;20033;-81
2023/06/18 04:39:35;;;;;;;25.17;15.93;;;;;;;;;;5034606;28;20029;-81
2023/06/18 04:42:01;;;;;;;25.00;16.45;;;;;;;;;;5035013;28;20091;-82
2023/06/18 04:44:26;;;;;;;24.90;16.70;;;;;;;;;;5036156;28;20021;-80
2023/06/18 04:46:52;;;;;;;24.30;15.05;;;;;;;;;;5035715;28;20030;-81
2023/06/18 04:49:18;;;;;;;22.55;15.23;;;;;;;;;;5034833;28;20034;-81
2023/06/18 04:51:44;;;;;;;26.70;15.95;;;;;;;;;;5034340;28;20109;-81
2023/06/18 04:54:11;;;;;;;22.10;15.18;;;;;;;;;;5035587;28;20029;-81
2023/06/18 04:56:36;;;;;;;22.88;15.50;;;;;;;;;;5017812;28;20034;-81
2023/06/18 04:59:02;;;;;;;21.13;15.52;;;;;;;;;;5035669;28;20040;-82
2023/06/18 05:01:28;;;;;;;20.83;15.23;;;;;;;;;;5033925;28;20077;-82
2023/06/18 05:03:53;;;;;;;26.00;16.17;;;;;;;;;;5035457;28;20037;-81
2023/06/18 05:06:18;;;;;;;26.95;15.20;;;;;;;;;;5035429;28;20041;-81
2023/06/18 05:08:46;;;;;;;23.13;14.27;;;;;;;;;;5017483;28;20038;-81
2023/06/18 05:11:12;;;;;;;22.30;15.88;;;;;;;;;;5035280;28;20029;-81
2023/06/18 05:13:37;;;;;;;23.15;15.27;;;;;;;;;;5035166;28;20033;-81
2023/06/18 05:16:03;;;;;;;21.00;14.93;;;;;;;;;;5033722;28;20037;-80
2023/06/18 05:18:28;;;;;;;22.15;14.63;;;;;;;;;;5035094;28;20108;-81
2023/06/18 05:20:54;;;;;;;23.25;14.95;;;;;;;;;;5033757;28;20376;-81
2023/06/18 05:23:19;;;;;;;21.55;14.15;;;;;;;;;;5017551;28;20509;-81
2023/06/18 05:25:45;;;;;;;18.30;13.13;;;;;;;;;;5017631;28;20421;-81
2023/06/18 05:28:10;;;;;;;19.23;13.32;;;;;;;;;;5034918;28;20029;-81
2023/06/18 05:30:36;;;;;;;30.75;13.02;;;;;;;;;;5017022;28;20434;-80
2023/06/18 05:33:02;;;;;;;18.42;13.02;;;;;;;;;;5034863;28;20447;-82
2023/06/18 05:35:27;;;;;;;20.88;12.68;;;;;;;;;;5017115;28;20087;-80
2023/06/18 05:37:52;;;;;;;23.77;13.07;;;;;;;;;;5034729;28;20029;-80
2023/06/18 05:40:18;;;;;;;20.83;13.32;;;;;;;;;;5033737;28;20462;-81
2023/06/18 05:42:43;;;;;;;21.67;12.80;;;;;;;;;;5034949;28;20455;-81
2023/06/18 05:45:09;;;;;;;19.92;13.35;;;;;;;;;;5033092;28;20034;-80
2023/06/18 05:47:35;;;;;;;22.63;12.65;;;;;;;;;;5035088;28;20033;-80
2023/06/18 05:50:00;;;;;;;21.38;12.38;;;;;;;;;;5034613;28;20041;-81
2023/06/18 05:52:26;;;;;;;17.88;12.13;;;;;;;;;;5016298;28;20034;-80
2023/06/18 05:54:51;;;;;;;28.20;12.88;;;;;;;;;;5033194;28;20033;-81
2023/06/18 05:57:16;;;;;;;22.77;13.43;;;;;;;;;;5034307;28;20033;-81
2023/06/18 05:59:42;;;;;;;18.80;12.48;;;;;;;;;;5033034;28;20026;-81
2023/06/18 06:02:08;;;;;;;24.83;13.05;;;;;;;;;;5034188;28;20064;-81
2023/06/18 06:04:33;;;;;;;18.63;12.68;;;;;;;;;;5016676;28;20402;-81
2023/06/18 06:06:58;;;;;;;21.38;13.25;;;;;;;;;;5034231;28;20072;-81
2023/06/18 06:09:24;;;;;;;20.17;12.35;;;;;;;;;;5032953;28;20033;-81
2023/06/18 06:11:49;;;;;;;22.52;13.15;;;;;;;;;;5016632;28;20034;-81
2023/06/18 06:14:15;;;;;;;19.20;13.05;;;;;;;;;;5033866;28;20091;-81
2023/06/18 06:16:40;;;;;;;17.25;12.40;;;;;;;;;;5034054;28;20029;-81
2023/06/18 06:19:06;;;;;;;23.30;13.60;;;;;;;;;;5032794;28;20103;-81
2023/06/18 06:21:33;;;;;;;26.52;13.60;;;;;;;;;;5033982;28;20099;-81
2023/06/18 06:23:58;;;;;;;19.80;13.77;;;;;;;;;;5033791;28;20025;-80
2023/06/18 06:26:24;;;;;;;21.70;14.40;;;;;;;;;;5033797;28;20060;-81
2023/06/18 06:28:49;;;;;;;19.88;14.25;;;;;;;;;;5033737;28;20355;-81
2023/06/18 06:31:15;;;;;;;22.98;14.68;;;;;;;;;;5032829;28;20084;-81
2023/06/18 06:33:40;;;;;;;23.02;14.95;;;;;;;;;;5033765;28;20052;-82
2023/06/18 06:36:09;;;;;;;20.27;14.50;;;;;;;;;;5034017;28;20061;-81
2023/06/18 06:38:34;;;;;;;20.30;15.02;;;;;;;;;;5017165;28;20111;-81
2023/06/18 06:41:00;;;;;;;24.52;15.35;;;;;;;;;;5015955;28;20104;-81
2023/06/18 06:43:25;;;;;;;24.05;15.68;;;;;;;;;;5015986;28;20025;-82
2023/06/18 06:45:51;;;;;;;20.30;14.68;;;;;;;;;;5015883;28;20029;-81
2023/06/18 06:48:16;;;;;;;22.98;14.80;;;;;;;;;;5033594;28;20025;-81
2023/06/18 06:50:42;;;;;;;26.17;14.32;;;;;;;;;;5032252;28;20048;-81
2023/06/18 06:53:07;;;;;;;21.55;14.50;;;;;;;;;;5014485;28;20064;-82
2023/06/18 06:55:32;;;;;;;20.48;13.38;;;;;;;;;;4998763;28;20073;-81
2023/06/18 06:57:59;;;;;;;16.98;13.50;;;;;;;;;;5031341;28;20063;-81
2023/06/18 07:00:24;;;;;;;25.40;13.60;;;;;;;;;;5031793;28;20026;-81
2023/06/18 07:02:50;;;;;;;21.55;14.85;;;;;;;;;;5014719;28;20040;-80
2023/06/18 07:05:15;;;;;;;17.45;14.05;;;;;;;;;;5052123;28;20289;-81
2023/06/18 07:07:41;;;;;;;21.95;13.93;;;;;;;;;;5019229;28;20099;-80
2023/06/18 07:10:07;;;;;;;20.70;14.68;;;;;;;;;;5036634;28;20521;-80
2023/06/18 07:12:32;;;;;;;19.90;14.93;;;;;;;;;;5016900;28;20037;-80
2023/06/18 07:14:58;;;;;;;24.85;16.58;;;;;;;;;;5034172;28;20447;-81
2023/06/18 07:17:24;;;;;;;24.63;16.15;;;;;;;;;;5016629;28;20047;-81
2023/06/18 07:19:49;;;;;;;23.65;17.13;;;;;;;;;;5016671;28;20439;-80
2023/06/18 07:22:14;;;;;;;21.85;16.90;;;;;;;;;;5034207;28;20037;-81
2023/06/18 07:24:40;;;;;;;29.10;17.85;;;;;;;;;;5034316;28;20036;-81
2023/06/18 07:27:05;;;;;;;23.73;15.82;;;;;;;;;;5018136;28;20045;-81
2023/06/18 07:29:31;;;;;;;28.45;17.30;;;;;;;;;;5019429;28;20524;-81
2023/06/18 07:31:56;;;;;;;23.48;17.70;;;;;;;;;;5037039;28;20025;-81
2023/06/18 07:34:22;;;;;;;26.60;17.95;;;;;;;;;;5019279;28;20029;-80
2023/06/18 07:36:47;;;;;;;24.02;18.52;;;;;;;;;;5037045;28;20174;-80
2023/06/18 07:39:13;;;;;;;23.23;16.95;;;;;;;;;;5036866;28;20034;-81
2023/06/18 07:41:38;;;;;;;24.80;17.52;;;;;;;;;;5019225;28;20044;-81
2023/06/18 07:44:04;;;;;;;27.02;19.00;;;;;;;;;;5019214;28;20089;-81
2023/06/18 07:46:30;;;;;;;24.30;18.52;;;;;;;;;;5019096;28;20033;-81
2023/06/18 07:48:55;;;;;;;27.02;19.10;;;;;;;;;;5036775;28;20434;-80
2023/06/18 07:51:21;;;;;;;24.00;18.73;;;;;;;;;;5019014;28;20052;-81
2023/06/18 07:53:46;;;;;;;25.70;17.88;;;;;;;;;;5036914;28;20026;-80
2023/06/18 07:56:12;;;;;;;28.63;18.35;;;;;;;;;;5036629;28;20052;-81
2023/06/18 07:58:37;;;;;;;25.77;18.17;;;;;;;;;;5019152;28;20455;-80
2023/06/18 08:01:02;;;;;;;24.58;18.05;;;;;;;;;;5036459;28;20036;-80
2023/06/18 08:03:28;;;;;;;26.48;18.85;;;;;;;;;;5018820;28;20030;-80
2023/06/18 08:05:53;;;;;;;24.10;18.38;;;;;;;;;;5036391;28;20029;-81
2023/06/18 08:08:20;;;;;;;28.10;19.33;;;;;;;;;;5036447;28;20113;-80
2023/06/18 08:10:45;;;;;;;28.77;19.75;;;;;;;;;;5036058;28;20021;-81
2023/06/18 08:13:11;;;;;;;30.85;19.67;;;;;;;;;;5018703;28;20084;-81
2023/06/18 08:15:36;;;;;;;33.30;18.83;;;;;;;;;;5018179;28;20029;-80
2023/06/18 08:18:02;;;;;;;28.05;18.80;;;;;;;;;;5036125;28;20021;-80
2023/06/18 08:20:27;;;;;;;25.13;18.30;;;;;;;;;;5018414;28;20040;-80
2023/06/18 08:22:52;;;;;;;24.73;18.10;;;;;;;;;;5036104;28;20029;-81
2023/06/18 08:25:18;;;;;;;28.27;18.00;;;;;;;;;;5018509;28;20030;-81
2023/06/18 08:27:43;;;;;;;23.00;17.88;;;;;;;;;;5036214;28;20029;-81
2023/06/18 08:30:09;;;;;;;26.25;17.38;;;;;;;;;;5018538;28;20069;-81
2023/06/18 08:32:34;;;;;;;24.88;17.52;;;;;;;;;;5035939;28;20100;-81
2023/06/18 08:35:01;;;;;;;32.85;18.15;;;;;;;;;;5018223;28;20407;-81
2023/06/18 08:37:27;;;;;;;29.90;17.65;;;;;;;;;;5034541;28;20057;-81
2023/06/18 08:39:52;;;;;;;23.95;17.52;;;;;;;;;;5035615;28;20033;-79
2023/06/18 08:42:20;;;;;;;24.45;17.05;;;;;;;;;;5035920;28;20032;-81
2023/06/18 08:44:46;;;;;;;24.80;17.90;;;;;;;;;;5018517;28;20032;-81
2023/06/18 08:47:11;;;;;;;27.10;17.75;;;;;;;;;;5035820;28;20116;-81
2023/06/18 08:49:39;;;;;;;26.77;17.92;;;;;;;;;;5018086;28;20029;-81
2023/06/18 08:52:07;;;;;;;27.25;16.83;;;;;;;;;;5018137;28;20029;-81
2023/06/18 08:54:33;;;;;;;22.45;17.30;;;;;;;;;;5017401;28;20087;-82
2023/06/18 08:57:13;;;;;;;23.77;16.33;;;;;;;;;;5034035;28;20395;-79
2023/06/18 08:59:38;;;;;;;;;;;;;;;;;;5015070;28;20129;-81
2023/06/18 09:02:04;;;;;;;27.73;17.17;;;;;;;;;;5014245;28;19992;-81
2023/06/18 09:04:31;;;;;;;22.23;16.20;;;;;;;;;;5013798;28;20076;-81
2023/06/18 09:06:56;;;;;;;22.65;16.58;;;;;;;;;;5013801;28;20042;-80
2023/06/18 09:09:22;;;;;;;22.15;16.67;;;;;;;;;;5013279;28;20042;-81
2023/06/18 09:11:47;;;;;;;23.55;16.92;;;;;;;;;;4997867;28;20452;-81
2023/06/18 09:14:16;;;;;;;22.52;16.30;;;;;;;;;;5030330;28;20026;-80
2023/06/18 09:16:41;;;;;;;23.95;16.08;;;;;;;;;;5014590;28;20034;-81
2023/06/18 09:19:07;;;;;;;22.70;15.85;;;;;;;;;;5014020;28;20132;-81
2023/06/18 09:21:34;;;;;;;23.77;16.30;;;;;;;;;;5013763;28;20038;-81
2023/06/18 09:24:00;;;;;;;20.60;15.13;;;;;;;;;;5012442;28;20029;-81
2023/06/18 09:26:26;;;;;;;25.27;15.50;;;;;;;;;;4995115;28;20588;-81
2023/06/18 09:28:54;;;;;;;18.77;13.80;;;;;;;;;;5028548;28;20026;-81
2023/06/18 09:31:27;;;;;;;20.35;14.65;;;;;;;;;;4996922;28;20355;-81
2023/06/18 09:33:52;;;;;;;19.30;14.82;;;;;;;;;;5014934;28;20337;-81
2023/06/18 09:36:17;;;;;;;21.42;15.18;;;;;;;;;;5014910;28;20037;-81
2023/06/18 09:38:43;;;;;;;24.15;15.18;;;;;;;;;;5014559;28;20036;-81
2023/06/18 09:41:11;;;;;;;18.92;14.13;;;;;;;;;;5030154;28;20040;-81
2023/06/18 09:43:38;;;;;;;23.13;14.98;;;;;;;;;;4997741;28;20088;-81
2023/06/18 09:46:06;;;;;;;19.95;14.52;;;;;;;;;;5013261;28;20129;-81
2023/06/18 09:48:36;;;;;;;19.23;14.05;;;;;;;;;;4997279;28;20061;-81
2023/06/18 09:51:01;;;;;;;21.90;14.52;;;;;;;;;;4997044;28;20436;-81
2023/06/18 09:53:27;;;;;;;19.77;15.27;;;;;;;;;;5029777;28;20042;-80
2023/06/18 09:55:52;;;;;;;19.58;14.68;;;;;;;;;;5013674;28;20344;-81
2023/06/18 09:58:18;;;;;;;17.73;14.43;;;;;;;;;;4997432;28;20064;-81
2023/06/18 10:01:01;;;;;;;19.95;14.35;;;;;;;;;;5014680;28;20072;-82
2023/06/18 10:03:27;;;;;;;18.65;14.38;;;;;;;;;;5028917;28;20535;-80
2023/06/18 10:05:52;;;;;;;18.42;14.13;;;;;;;;;;5012888;28;20116;-81
2023/06/18 10:08:18;;;;;;;18.50;13.65;;;;;;;;;;5013457;28;20112;-81
2023/06/18 10:10:43;;;;;;;15.75;13.32;;;;;;;;;;5014413;28;20026;-82
2023/06/18 10:13:11;;;;;;;14.80;13.05;;;;;;;;;;5014435;28;20057;-81
2023/06/18 10:15:36;;;;;;;19.23;13.02;;;;;;;;;;5013247;28;20097;-81
2023/06/18 10:18:02;;;;;;;16.02;12.70;;;;;;;;;;5029303;28;20133;-82
2023/06/18 10:20:27;;;;;;;17.52;12.80;;;;;;;;;;5029165;28;20029;-81
2023/06/18 10:22:58;;;;;;;15.82;12.68;;;;;;;;;;5013244;28;20022;-81
2023/06/18 10:25:24;;;;;;;13.82;11.90;;;;;;;;;;5013544;28;20149;-82
2023/06/18 10:27:49;;;;;;;13.13;11.60;;;;;;;;;;5029301;28;20033;-83
2023/06/18 10:30:15;;;;;;;14.00;12.07;;;;;;;;;;5029611;28;20033;-82
2023/06/18 10:32:42;;;;;;;15.68;11.85;;;;;;;;;;4996974;28;20026;-82
2023/06/18 10:35:08;;;;;;;15.55;12.13;;;;;;;;;;5029138;28;20337;-82
2023/06/18 10:37:35;;;;;;;16.05;11.40;;;;;;;;;;5012875;28;20119;-82
2023/06/18 10:40:01;;;;;;;14.35;11.15;;;;;;;;;;5029088;28;20034;-82
2023/06/18 10:42:28;;;;;;;14.93;11.65;;;;;;;;;;5029348;28;20103;-83
2023/06/18 10:44:54;;;;;;;13.80;10.98;;;;;;;;;;5029138;28;20053;-82
2023/06/18 10:47:21;;;;;;;12.18;10.98;;;;;;;;;;5029319;28;20045;-82
2023/06/18 10:50:02;;;;;;;14.23;10.95;;;;;;;;;;5028605;28;20029;-82
2023/06/18 10:52:49;;;;;;;13.50;11.35;;;;;;;;;;5013909;28;20026;-82
2023/06/18 10:55:17;;;;;;;12.05;10.80;;;;;;;;;;5013981;28;20451;-82
2023/06/18 10:57:48;;;;;;;12.05;10.60;;;;;;;;;;5028976;28;20345;-82
2023/06/18 11:00:24;;;;;;;13.00;10.85;;;;;;;;;;5013776;28;20353;-83
2023/06/18 11:02:57;;;;;;;11.35;10.18;;;;;;;;;;4995725;28;20050;-83
2023/06/18 11:05:51;;;;;;;13.95;10.30;;;;;;;;;;4976663;28;20051;-83
2023/06/18 11:08:26;;;;;;;14.70;10.02;;;;;;;;;;4990804;28;20030;-82
2023/06/18 11:11:06;;;;;;;14.85;10.88;;;;;;;;;;4976826;28;20022;-83
2023/06/18 11:13:36;;;;;;;11.43;10.10;;;;;;;;;;4976942;28;20026;-81
2023/06/18 11:16:10;;;;;;;11.30;9.68;;;;;;;;;;4992868;28;20023;-83
2023/06/18 11:18:36;;;;;;;11.27;10.07;;;;;;;;;;4994089;28;20030;-83
2023/06/18 11:21:02;;;;;;;13.45;10.48;;;;;;;;;;4976711;28;20027;-83
2023/06/18 11:23:28;;;;;;;13.82;10.38;;;;;;;;;;4960584;28;20479;-83
2023/06/18 11:25:54;;;;;;;11.82;10.20;;;;;;;;;;4992642;28;20117;-82
2023/06/18 11:28:20;;;;;;;14.77;10.27;;;;;;;;;;5009085;28;20026;-82
2023/06/18 11:30:54;;;;;;;10.50;9.43;;;;;;;;;;4976488;28;20053;-83
2023/06/18 11:33:29;;;;;;;11.77;10.45;;;;;;;;;;4992585;28;20052;-82
2023/06/18 11:36:06;;;;;;;12.48;11.18;;;;;;;;;;4993887;28;20037;-83
2023/06/18 11:38:32;;;;;;;13.48;11.23;;;;;;;;;;4992886;28;20038;-82
2023/06/18 11:40:57;;;;;;;13.88;11.15;;;;;;;;;;4993680;28;20023;-82
2023/06/18 11:43:23;;;;;;;12.40;10.57;;;;;;;;;;4992549;28;20375;-82
2023/06/18 11:45:49;;;;;;;10.77;9.68;;;;;;;;;;4993846;28;20069;-82
2023/06/18 11:48:16;;;;;;;12.23;8.60;;;;;;;;;;4976101;28;20026;-82
2023/06/18 11:50:42;;;;;;;12.98;9.38;;;;;;;;;;4995249;28;20121;-82
2023/06/18 11:53:09;;;;;;;10.88;9.00;;;;;;;;;;4996761;28;20053;-82
2023/06/18 11:55:36;;;;;;;12.05;7.72;;;;;;;;;;4980522;28;20034;-82
2023/06/18 11:58:02;;;;;;;8.85;7.68;;;;;;;;;;4997162;28;20030;-82
2023/06/18 12:00:27;;;;;;;9.30;7.55;;;;;;;;;;4979734;28;20031;-83
2023/06/18 12:02:53;;;;;;;10.15;7.35;;;;;;;;;;4996530;28;20463;-82
2023/06/18 12:05:18;;;;;;;10.85;7.45;;;;;;;;;;5015341;28;20072;-82
2023/06/18 12:07:45;;;;;;;8.85;7.38;;;;;;;;;;5016621;28;20030;-82
2023/06/18 12:10:11;;;;;;;10.38;7.60;;;;;;;;;;5031939;28;20029;-83
2023/06/18 12:13:02;;;;;;;8.07;6.60;;;;;;;;;;5015869;28;20356;-83
2023/06/18 12:15:36;;;;;;;7.53;6.80;;;;;;;;;;4999056;28;20026;-83
2023/06/18 12:18:09;;;;;;;10.00;7.55;;;;;;;;;;5014617;28;20030;-82
2023/06/18 12:20:35;;;;;;;9.18;8.25;;;;;;;;;;5030814;28;20022;-82
2023/06/18 12:23:01;;;;;;;11.25;10.05;;;;;;;;;;5016453;28;20022;-83
2023/06/18 12:25:28;;;;;;;12.75;10.43;;;;;;;;;;5031635;28;20026;-81
2023/06/18 12:27:55;;;;;;;15.82;10.48;;;;;;;;;;4998642;28;20034;-81
2023/06/18 12:30:29;;;;;;;14.27;8.50;;;;;;;;;;5016008;28;20095;-82
2023/06/18 12:33:14;;;;;;;10.48;8.95;;;;;;;;;;5031271;28;20053;-82
2023/06/18 12:35:46;;;;;;;11.13;7.55;;;;;;;;;;5031457;28;20075;-82
2023/06/18 12:38:11;;;;;;;8.57;7.25;;;;;;;;;;5031329;28;20029;-81
2023/06/18 12:40:51;;;;;;;9.50;7.05;;;;;;;;;;5015910;28;20057;-82
2023/06/18 12:43:17;;;;;;;;;;;;;;;;;;4998953;28;20087;-81
2023/06/18 12:45:42;;;;;;;12.15;8.00;;;;;;;;;;5015462;28;19921;-82
2023/06/18 12:48:15;;;;;;;9.95;8.50;;;;;;;;;;5014457;28;20030;-82
2023/06/18 12:50:43;;;;;;;11.38;9.43;;;;;;;;;;5014658;28;20036;-82
2023/06/18 12:53:41;;;;;;;10.60;9.50;;;;;;;;;;5015689;28;20026;-81
2023/06/18 12:56:22;;;;;;;10.35;8.93;;;;;;;;;;4955757;28;20053;-82
2023/06/18 12:58:48;;;;;;;10.13;8.85;;;;;;;;;;5014428;28;20125;-82
2023/06/18 13:01:13;;;;;;;10.95;9.15;;;;;;;;;;5029141;28;20052;-82
2023/06/18 13:03:42;;;;;;;15.40;9.38;;;;;;;;;;5014322;28;20136;-81
2023/06/18 13:06:10;;;;;;;12.65;9.48;;;;;;;;;;5030692;28;20367;-81
2023/06/18 13:08:36;;;;;;;10.48;9.27;;;;;;;;;;5031029;28;20037;-81
2023/06/18 13:11:03;;;;;;;10.30;9.25;;;;;;;;;;5014608;28;20360;-81
2023/06/18 13:13:29;;;;;;;10.88;9.57;;;;;;;;;;4998366;28;20033;-81
2023/06/18 13:15:54;;;;;;;11.93;8.95;;;;;;;;;;5013818;28;20026;-82
2023/06/18 13:18:20;;;;;;;11.85;9.25;;;;;;;;;;5014251;28;20375;-82
2023/06/18 13:20:46;;;;;;;12.23;9.63;;;;;;;;;;4998153;28;20096;-82
2023/06/18 13:23:12;;;;;;;14.25;11.40;;;;;;;;;;5030339;28;20048;-81
2023/06/18 13:25:38;;;;;;;18.90;11.18;;;;;;;;;;4997528;28;20115;-80
2023/06/18 13:28:04;;;;;;;12.65;11.35;;;;;;;;;;5013964;28;20034;-81
2023/06/18 13:30:29;;;;;;;12.60;10.85;;;;;;;;;;5013852;28;20371;-82
2023/06/18 13:32:56;;;;;;;13.70;10.23;;;;;;;;;;4981597;28;20464;-81
2023/06/18 13:35:22;;;;;;;16.95;10.73;;;;;;;;;;4981698;28;20026;-82
2023/06/18 13:37:47;;;;;;;11.88;9.63;;;;;;;;;;5015239;28;20044;-81
2023/06/18 13:40:13;;;;;;;11.82;10.52;;;;;;;;;;5015119;28;20026;-81
2023/06/18 13:42:38;;;;;;;15.93;10.48;;;;;;;;;;4997645;28;20057;-80
2023/06/18 13:45:04;;;;;;;12.52;10.27;;;;;;;;;;5015228;28;20034;-82
2023/06/18 13:47:30;;;;;;;10.80;9.68;;;;;;;;;;5015169;28;20037;-81
2023/06/18 13:49:55;;;;;;;11.20;10.00;;;;;;;;;;5013810;28;20045;-82
2023/06/18 13:52:21;;;;;;;12.10;9.95;;;;;;;;;;5030229;28;20030;-82
2023/06/18 13:54:47;;;;;;;11.95;9.73;;;;;;;;;;4997155;28;20056;-82
2023/06/18 13:57:12;;;;;;;14.13;10.35;;;;;;;;;;5014700;28;20033;-82
2023/06/18 13:59:38;;;;;;;10.73;9.60;;;;;;;;;;5013075;28;20440;-82
2023/06/18 14:02:04;;;;;;;15.90;10.07;;;;;;;;;;5014347;28;20042;-82
2023/06/18 14:04:34;;;;;;;11.70;9.85;;;;;;;;;;5014486;28;20349;-82
2023/06/18 14:07:00;;;;;;;11.90;10.07;;;;;;;;;;5014380;28;20387;-82
2023/06/18 14:09:25;;;;;;;22.30;13.68;;;;;;;;;;5013211;28;20040;-81
2023/06/18 14:11:51;;;;;;;18.50;12.65;;;;;;;;;;4996904;28;20380;-81
2023/06/18 14:14:19;;;;;;;14.48;11.82;;;;;;;;;;5029407;28;20048;-82
2023/06/18 14:16:44;;;;;;;14.07;10.85;;;;;;;;;;4997178;28;20034;-83